Terminal Aerodrome Forecast
Issued by NWS

Current Version | Previous Version | Text Only | Print | Product List | Glossary On
Versions: 1 2 3 4 5 6 7 8 9 10 11 12 13
000
FTUS43 KBIS 020500
TAFMOT
TAF
KMOT 020536Z 0206/0306 VRB05KT P6SM SCT080 BKN150 BKN250
     FM020900 VRB03KT P6SM VCSH SCT050 BKN080 OVC150
     FM021500 02006KT P6SM SCT035 BKN150
     FM021800 02012KT P6SM SCT050 BKN070
     FM030300 05007KT P6SM SCT030 BKN050 OVC070=

USA.gov is the U.S. government's official web portal to all federal, state and local government web resources and services.